Latest Weather Observations for Arlington Reef

IDQ60801

Issued at 8:35 pm EST Saturday 19 April 2014 (issued every 30 minutes, with the page automatically refreshed every 10 minutes)

About weather observations | Map of weather stations | Latest weather observations for QLD | Other Formats
Station Details ID: 200879 Name: ARLINGTON REEF Lat: -16.72 Lon: 146.11 Height: 0.0 m
Data from the previous 72 hours. | See also: Recent months at Arlington Reef
Date/Time
EST
Temp
°C
App
Temp
°C
Dew
Point
Rel
Hum
%
Delta-T
°C
Wind Press
QNH
hPa
Press
MSL
hPa
Rain
since 9 am
mm
Dir
 
Spd
km/h
Gust
km/h
Spd
kts
Gust
kts
19/08:30pm - - - - - SE 26 32 14 17 1014.5 - -
19/08:00pm - - - - - SE 28 33 15 18 1014.3 1014.3 -
19/07:30pm - - - - - SE 30 35 16 19 1014.0 - -
19/07:00pm - - - - - SE 30 35 16 19 1013.7 1013.7 -
19/06:30pm - - - - - SE 28 33 15 18 1013.6 - -
19/06:00pm - - - - - SE 28 33 15 18 1013.3 1013.3 -
19/05:30pm - - - - - SE 28 33 15 18 1013.1 - -
19/05:00pm - - - - - SE 30 35 16 19 1012.8 1012.8 -
19/04:30pm - - - - - SE 28 33 15 18 1012.5 - -
19/04:00pm - - - - - SE 26 32 14 17 1012.3 1012.3 -
19/03:30pm - - - - - SE 28 33 15 18 1012.4 - -
19/03:00pm - - - - - SE 28 32 15 17 1012.5 1012.5 -
19/02:30pm - - - - - SE 26 32 14 17 1012.8 - -
19/02:00pm - - - - - ESE 26 32 14 17 1013.2 1013.2 -
19/01:30pm - - - - - SE 26 32 14 17 1013.5 - -
19/01:00pm - - - - - SE 26 30 14 16 1013.9 1013.9 -
19/12:30pm - - - - - SE 28 32 15 17 1014.3 - -
19/12:00pm - - - - - ESE 26 30 14 16 1014.7 1014.7 -
19/11:30am - - - - - ESE 26 30 14 16 1015.1 - -
19/11:00am - - - - - ESE 26 30 14 16 1015.5 1015.5 -
19/10:30am - - - - - ESE 24 30 13 16 1015.7 - -
19/10:00am - - - - - ESE 26 30 14 16 1015.8 1015.8 -
19/09:30am - - - - - ESE 26 32 14 17 1015.8 - -
19/09:00am - - - - - ESE 24 30 13 16 1015.3 1015.3 -
19/08:30am - - - - - ESE 26 30 14 16 1015.1 - -
19/08:00am - - - - - ESE 26 32 14 17 1014.9 1014.9 -
19/07:30am - - - - - ESE 28 32 15 17 1014.6 - -
19/07:00am - - - - - ESE 28 33 15 18 1014.4 1014.4 -
19/06:30am - - - - - ESE 24 30 13 16 1014.2 - -
19/06:00am - - - - - ESE 28 32 15 17 1014.0 1014.0 -
19/05:30am - - - - - ESE 24 30 13 16 1013.7 - -
19/05:00am - - - - - E 24 30 13 16 1013.7 1013.7 -
19/04:30am - - - - - E 28 33 15 18 1013.5 - -
19/04:00am - - - - - E 24 30 13 16 1013.5 1013.5 -
19/03:30am - - - - - E 26 30 14 16 1013.7 - -
19/03:00am - - - - - ESE 19 28 10 15 1013.9 1013.9 -
19/02:30am - - - - - ESE 20 24 11 13 1014.0 - -
19/02:00am - - - - - ESE 22 26 12 14 1014.2 1014.2 -
19/01:30am - - - - - ESE 22 26 12 14 1014.3 - -
19/01:00am - - - - - ESE 22 28 12 15 1014.6 1014.6 -
19/12:30am - - - - - ESE 24 30 13 16 1014.9 - -
19/12:00am - - - - - SE 24 28 13 15 1015.1 1015.1 -
 
Date/Time
EST
Temp
°C
App
Temp
°C
Dew
Point
Rel
Hum
%
Delta-T
°C
Wind Press
QNH
hPa
Press
MSL
hPa
Rain
since 9 am
mm
Dir
 
Spd
km/h
Gust
km/h
Spd
kts
Gust
kts
18/11:30pm - - - - - ESE 22 28 12 15 1015.4 - -
18/11:00pm - - - - - ESE 24 30 13 16 1015.3 1015.3 -
18/10:30pm - - - - - ESE 26 30 14 16 1015.4 - -
18/10:00pm - - - - - ESE 24 28 13 15 1015.7 1015.7 -
18/09:30pm - - - - - ESE 24 30 13 16 1015.7 - -
18/09:00pm - - - - - ESE 26 30 14 16 1015.6 1015.6 -
18/08:30pm - - - - - ESE 26 32 14 17 1015.6 - -
18/08:00pm - - - - - ESE 26 32 14 17 1015.2 1015.2 -
18/07:30pm - - - - - ESE 28 32 15 17 1014.7 - -
18/07:00pm - - - - - ESE 26 30 14 16 1014.3 1014.3 -
18/06:30pm - - - - - ESE 28 32 15 17 1013.9 - -
18/06:00pm - - - - - SE 24 30 13 16 1013.6 1013.6 -
18/05:30pm - - - - - SE 24 35 13 19 1013.3 - -
18/05:00pm - - - - - ESE 22 26 12 14 1013.0 1013.0 -
18/04:30pm - - - - - SE 24 28 13 15 1012.9 - -
18/04:00pm - - - - - SE 24 28 13 15 1012.7 1012.7 -
18/03:30pm - - - - - ESE 24 28 13 15 1012.6 - -
18/03:00pm - - - - - ESE 22 28 12 15 1012.7 1012.7 -
18/02:30pm - - - - - SE 26 30 14 16 1012.6 - -
18/02:00pm - - - - - SE 24 28 13 15 1012.7 1012.7 -
18/01:30pm - - - - - ESE 28 32 15 17 1013.1 - -
18/01:00pm - - - - - ESE 26 32 14 17 1013.4 1013.4 -
18/12:30pm - - - - - ESE 26 30 14 16 1013.5 - -
18/12:00pm - - - - - ESE 30 33 16 18 1013.8 1013.8 -
18/11:30am - - - - - ESE 28 33 15 18 1014.2 - -
18/11:00am - - - - - ESE 28 32 15 17 1014.5 1014.5 -
18/10:30am - - - - - ESE 28 33 15 18 1014.9 - -
18/10:00am - - - - - ESE 28 33 15 18 1015.0 1015.0 -
18/09:30am - - - - - SE 30 33 16 18 1014.9 - -
18/09:00am - - - - - ESE 30 35 16 19 1014.6 1014.6 -
18/08:30am - - - - - SE 30 33 16 18 1014.5 - -
18/08:00am - - - - - SE 28 35 15 19 1014.3 1014.3 -
18/07:30am - - - - - SE 30 35 16 19 1014.1 - -
18/07:00am - - - - - SE 28 33 15 18 1013.8 1013.8 -
18/06:30am - - - - - SE 28 33 15 18 1013.5 - -
18/06:00am - - - - - SE 30 33 16 18 1013.3 1013.3 -
18/05:30am - - - - - SE 28 33 15 18 1013.0 - -
18/05:00am - - - - - SE 32 37 17 20 1012.8 1012.8 -
18/04:30am - - - - - SE 28 33 15 18 1012.6 - -
18/04:00am - - - - - SE 28 32 15 17 1012.5 1012.5 -
18/03:30am - - - - - SE 28 33 15 18 1012.5 - -
18/03:00am - - - - - SE 28 33 15 18 1012.6 1012.6 -
18/02:30am - - - - - SE 28 33 15 18 1012.9 - -
18/02:00am - - - - - SE 28 33 15 18 1013.1 1013.1 -
18/01:30am - - - - - SE 28 33 15 18 1013.3 - -
18/01:00am - - - - - ESE 30 33 16 18 1013.7 1013.7 -
18/12:30am - - - - - ESE 28 32 15 17 1014.4 - -
18/12:00am - - - - - ESE 28 33 15 18 1014.8 1014.8 -
 
Date/Time
EST
Temp
°C
App
Temp
°C
Dew
Point
Rel
Hum
%
Delta-T
°C
Wind Press
QNH
hPa
Press
MSL
hPa
Rain
since 9 am
mm
Dir
 
Spd
km/h
Gust
km/h
Spd
kts
Gust
kts
17/11:30pm - - - - - ESE 28 32 15 17 1015.1 - -
17/11:00pm - - - - - ESE 28 32 15 17 1015.2 1015.2 -
17/10:30pm - - - - - ESE 30 33 16 18 1015.4 - -
17/10:00pm - - - - - ESE 32 37 17 20 1015.4 1015.4 -
17/09:30pm - - - - - SE 28 33 15 18 1015.4 - -
17/09:00pm - - - - - SE 30 35 16 19 1015.2 1015.2 -
17/08:30pm - - - - - SE 32 37 17 20 1014.9 - -
17/08:00pm - - - - - SE 32 37 17 20 1014.8 1014.8 -
17/07:30pm - - - - - SSE 32 35 17 19 1014.6 - -
17/07:00pm - - - - - SSE 30 35 16 19 1014.2 1014.2 -
17/06:30pm - - - - - SSE 33 39 18 21 1013.6 - -
17/06:00pm - - - - - SSE 35 43 19 23 1013.2 1013.2 -
17/05:30pm - - - - - SE 35 41 19 22 1012.9 - -
17/05:00pm - - - - - SE 35 39 19 21 1012.5 1012.5 -
17/04:30pm - - - - - SE 33 41 18 22 1012.6 - -
17/04:00pm - - - - - SE 32 37 17 20 1012.4 1012.4 -
17/03:30pm - - - - - SSE 28 33 15 18 1012.2 - -
17/03:00pm - - - - - SSE 30 35 16 19 1012.3 1012.3 -
17/02:30pm - - - - - SE 28 32 15 17 1012.5 - -
17/02:00pm - - - - - SE 26 30 14 16 1012.8 1012.8 -
17/01:30pm - - - - - SSE 24 30 13 16 1013.0 - -
17/01:00pm - - - - - SE 26 30 14 16 1013.3 1013.3 -
17/12:30pm - - - - - SE 24 28 13 15 1013.7 - -
17/12:00pm - - - - - SE 26 28 14 15 1014.0 1014.0 -
17/11:30am - - - - - SE 26 30 14 16 1014.5 - -
17/11:00am - - - - - SE 26 30 14 16 1014.9 1014.9 -
17/10:30am - - - - - ESE 26 30 14 16 1015.1 - -
17/10:00am - - - - - SE 28 32 15 17 1015.3 1015.3 -
17/09:30am - - - - - ESE 28 32 15 17 1015.1 - -
17/09:00am - - - - - SE 28 33 15 18 1015.0 1015.0 -
17/08:30am - - - - - SE 28 33 15 18 1014.7 - -
17/08:00am - - - - - SE 28 32 15 17 1014.5 1014.5 -
17/07:30am - - - - - SE 28 33 15 18 1014.1 - -
17/07:00am - - - - - SE 28 35 15 19 1013.8 1013.8 -
17/06:30am - - - - - SE 26 30 14 16 1013.6 - -
17/06:00am - - - - - SE 28 33 15 18 1013.0 1013.0 -
17/05:30am - - - - - SE 32 35 17 19 1012.6 - -
17/05:00am - - - - - SE 32 35 17 19 1012.3 1012.3 -
17/04:30am - - - - - SE 32 35 17 19 1012.1 - -
17/04:00am - - - - - SE 30 33 16 18 1012.1 1012.1 -
17/03:30am - - - - - SE 32 35 17 19 1012.2 - -
17/03:00am - - - - - SE 30 35 16 19 1012.1 1012.1 -
17/02:30am - - - - - SE 32 35 17 19 1012.2 - -
17/02:00am - - - - - SE 32 35 17 19 1012.4 1012.4 -
17/01:30am - - - - - SE 30 33 16 18 1012.6 - -
17/01:00am - - - - - SE 30 33 16 18 1012.9 1012.9 -
17/12:30am - - - - - SE 30 33 16 18 1013.2 - -
17/12:00am - - - - - SE 28 33 15 18 1013.4 1013.4 -
 
Date/Time
EST
Temp
°C
App
Temp
°C
Dew
Point
Rel
Hum
%
Delta-T
°C
Wind Press
QNH
hPa
Press
MSL
hPa
Rain
since 9 am
mm
Dir
 
Spd
km/h
Gust
km/h
Spd
kts
Gust
kts
16/11:30pm - - - - - SE 28 33 15 18 1013.4 - -
16/11:00pm - - - - - SE 28 32 15 17 1013.6 1013.6 -
16/10:30pm - - - - - SE 28 32 15 17 1013.8 - -
16/10:00pm - - - - - SE 30 33 16 18 1013.5 1013.5 -
16/09:30pm - - - - - SSE 28 32 15 17 1013.5 - -
16/09:00pm - - - - - SSE 28 32 15 17 1013.4 1013.4 -

Other Formats:

Comma delimited format used in spreadsheet applications
http://www.bom.gov.au/fwo/IDQ60801/IDQ60801.94284.axf

JavaScript Object Notation format (JSON) in row-major order
http://www.bom.gov.au/fwo/IDQ60801/IDQ60801.94284.json